Dairyland, Wisconsin
Current Conditions -  °F | °C
As of 8:15 PM on Saturday 22 Nov 2014 (Local Time) from KRZN Reporting Station
Haze Haze  
Wind Chill: 25°   Ceiling: 300
Heat Index: 34°   Visibility: 4mi
Dew Point: 34°   Wind: 12mph
Humidity: 99%   Direction: 160°SSE
Pressure: 29.61"   Gusts: NA
Location:  46.1107°N, 92.219°W
Report Text: KRZN 230215Z AUTO 16010KT 4SM BR OVC003 01/01 A2961 RMK AO2 T00110009
Loading
Personal Weather Stations






























Interactive Weather Map New forecast layout! Learn more

10-Day Weather Forecast

Advertisements
Track Severe Weather on mobile